Terminal Aerodrome Forecast
Issued by NWS Melbourne, FL

Home | Current Version | Previous Version | Text Only | Print | Product List | Glossary On
Versions: 1 2 3 4 5 6 7 8 9 10 11 12 13 14 15 16 17 18 19 20 21
000
FTUS42 KMLB 061738
TAFVRB
TAF
KVRB 061738Z 0618/0718 09006KT P6SM VCTS SCT040CB BKN250
     FM062300 14006KT P6SM SCT030 BKN250
     FM070400 VRB03KT P6SM FEW025 SCT250
     FM071600 09009KT P6SM SCT035 SCT250=

USA.gov is the U.S. government's official web portal to all federal, state and local government web resources and services.